LOWILCLK

Guest
Details From LOWI - Innsbruck Kranebitten
To LCLK - Larnaca
Flight Number -
Tags decoded
Created
Modified
Stats Distance 1,246 nm / 2,308 km
Max Altitude 0 ft / 0 m
Waypoints 2
Social Downloads 0
Likes 0
Share VATSIM

Download

Looking for another format? Having issues loading an existing format? Contact us
Advertisement - Login to hide

Notes

Requested: LOWI LCLK

Route

LOWI LCLK

ID Type Via Altitude (ft/m) Position (lat/lon) Dist (leg/tot) Name
O LOWI APT - 0 / 0 47.26023 / 11.34397 - / 0 nm Innsbruck Kranebitten
O LCLK APT - 0 / 0 34.87512 / 33.62483 1245 / 1245 nm Larnaca

Altitude Profile

Advertisement - Login to hide

Weather


0- 5 10 15 20 25 30 35+ Temperature / °C

Clouds and Precipitation
Forecast for 2018-10-15 18:00 UTC. Updated 3 hours ago

Ground ~20,000 ft ~40,000 ft Winds

LOWI

Details ICAO LOWI (INN)
Name Innsbruck Kranebitten
Region Austria
Timezone Europe/Vienna (UTC+2.0)
Stats Elevation 1,905 ft / 581 m (AMSL)
Location 47.260200° 11.344000°
Runways 1
Magnetic Variation 3.119° E

METAR

LOWI 151820Z 12008KT 070V210 9999 FEW070 18/05 Q1017 NOSIG

Decode

TAF

TAF LOWI 151715Z 1518/1618 10010G20KT 9999 FEW070 TX21/1614Z TN06/1606Z BECMG 1519/1521 27007KT BECMG 1609/1611 10007KT TEMPO 1610/1616 12010G20KT

Decode

Departure Runways

ID Width Length Bearing (true/mag) Surface Threshold Overrun Markings Lighting
08 148 ft / 45 m 6,544 ft / 1,995 m 80.93° / 77.81° ASPHALT 338 ft / 103 m 0 ft / 0 m PREC-APP CENTERLINE REIL-OMNI
26 148 ft / 45 m 6,544 ft / 1,995 m 260.95° / 257.83° ASPHALT 0 ft / 0 m 0 ft / 0 m PREC-APP CENTERLINE MALS REIL-OMNI

LCLK

Details ICAO LCLK (LCA)
Name Larnaca Airport
Region Cyprus
Timezone Asia/Nicosia (UTC+3.0)
Stats Elevation 9 ft / 3 m (AMSL)
Location 34.873800° 33.623900°
Runways 1
Magnetic Variation 5.063° E

METAR

LCLK 151830Z 27003KT CAVOK 22/16 Q1015 NOSIG

Decode

TAF

TAF LCLK 151730Z 1518/1618 31005KT 9999 FEW020 BECMG 1609/1612 18011KT BECMG 1615/1618 30005KT

Decode

Destination Runways

ID Width Length Bearing (true/mag) Surface Threshold Overrun Markings Lighting
04 148 ft / 45 m 9,831 ft / 2,997 m 45.07° / 40.00° ASPHALT 0 ft / 0 m 194 ft / 59 m PREC-APP CENTERLINE EDGE THRESHOLD ALSF-II REIL-OMNI
22 148 ft / 45 m 9,831 ft / 2,997 m 225.08° / 220.02° ASPHALT 594 ft / 181 m 0 ft / 0 m PREC-APP CENTERLINE EDGE THRESHOLD ALSF-II REIL-OMNI

Approach Navaids

Runway Type Ident Frequency Range Bearing (true/mag) Slope Elevation
22 GS ILC 110.30 MHz 10 nm / 19 km 225.32° / 220.25 ° 2.75° 24 ft / 7 m (AMSL)
22 DME ILC 110.30 MHz 18 nm / 33 km - - 20 ft / 6 m (AMSL)
22 LOC-ILS ILC 110.30 MHz 18 nm / 33 km 225.17° / 220.10 ° - 8 ft / 2 m (AMSL)

Popular Alternatives